Time;durP1;ratioP1;P1;durP2;ratioP2;P2;SDS_P1;SDS_P2;PMS_P1;PMS_P2;Temp;Humidity;BMP_temperature;BMP_pressure;BME280_temperature;BME280_humidity;BME280_pressure;Samples;Min_cycle;Max_cycle;Signal;HPM_P1;HPM_P2
2023/01/26 00:00:15;;;;;;;0.60;0.60;;;;;;;-0.59;98.37;97395.00;29373;354;63009;-56
2023/01/26 00:00:46;;;;;;;0.70;0.70;;;;;;;-0.60;98.64;97390.72;29373;213;63005;-57
2023/01/26 00:01:24;;;;;;;0.60;0.60;;;;;;;-0.62;98.79;97390.09;29373;264;63009;-56
2023/01/26 00:01:55;;;;;;;0.60;0.60;;;;;;;-0.58;99.05;97391.31;29373;199;63005;-56
2023/01/26 00:02:27;;;;;;;0.70;0.70;;;;;;;-0.56;98.99;97390.09;29373;308;63009;-64
2023/01/26 00:02:58;;;;;;;0.60;0.60;;;;;;;-0.48;99.03;97391.69;29373;196;63005;-55
2023/01/26 00:03:29;;;;;;;0.60;0.60;;;;;;;-0.40;98.51;97394.13;29371;202;64013;-56
2023/01/26 00:04:00;;;;;;;0.60;0.60;;;;;;;-0.34;97.89;97393.25;29373;202;63008;-56
2023/01/26 00:04:32;;;;;;;0.60;0.60;;;;;;;-0.35;97.53;97397.00;29371;278;64028;-56
2023/01/26 00:05:04;;;;;;;0.60;0.60;;;;;;;-0.39;97.31;97395.78;29373;236;63017;-55
2023/01/26 00:05:38;;;;;;;0.70;0.70;;;;;;;-0.44;97.21;97390.25;29373;293;63009;-55
2023/01/26 00:06:12;;;;;;;0.60;0.60;;;;;;;-0.49;97.23;97390.88;29373;312;63004;-56
2023/01/26 00:06:43;;;;;;;0.70;0.70;;;;;;;-0.51;97.28;97392.13;29373;265;63008;-55
2023/01/26 00:07:14;;;;;;;1.23;1.23;;;;;;;-0.51;97.61;97386.78;29373;199;63004;-55
2023/01/26 00:07:46;;;;;;;0.60;0.60;;;;;;;-0.49;97.79;97390.06;29373;285;63009;-55
2023/01/26 00:08:17;;;;;;;0.60;0.60;;;;;;;-0.50;97.81;97383.91;29373;197;63005;-56
2023/01/26 00:08:52;;;;;;;0.70;0.70;;;;;;;-0.52;97.73;97382.47;29373;200;63013;-55
2023/01/26 00:09:23;;;;;;;0.70;0.70;;;;;;;-0.56;97.87;97378.59;29371;280;64009;-55
2023/01/26 00:09:54;;;;;;;0.70;0.70;;;;;;;-0.59;97.99;97382.50;29373;196;63009;-56
2023/01/26 00:10:26;;;;;;;0.70;0.70;;;;;;;-0.62;98.27;97379.44;29373;333;63005;-55
2023/01/26 00:11:02;;;;;;;0.60;0.60;;;;;;;-0.63;98.09;97385.78;29373;350;63009;-56
2023/01/26 00:11:33;;;;;;;0.60;0.60;;;;;;;-0.65;98.26;97379.84;29373;254;63004;-56
2023/01/26 00:12:05;;;;;;;0.70;0.70;;;;;;;-0.68;98.36;97378.41;29373;247;63019;-56
2023/01/26 00:12:37;;;;;;;0.60;0.60;;;;;;;-0.67;98.68;97377.41;29373;332;63004;-56
2023/01/26 00:13:12;;;;;;;0.60;0.60;;;;;;;-0.64;98.92;97376.16;29373;319;63009;-55
2023/01/26 00:13:43;;;;;;;0.60;0.60;;;;;;;-0.62;99.27;97382.09;29373;296;63004;-55
2023/01/26 00:14:16;;;;;;;0.60;0.60;;;;;;;-0.62;99.23;97384.75;29373;198;63008;-56
2023/01/26 00:14:50;;;;;;;0.70;0.70;;;;;;;-0.64;99.27;97371.66;29371;364;64009;-55
2023/01/26 00:15:22;;;;;;;0.70;0.70;;;;;;;-0.68;99.05;97373.91;29373;333;63009;-65
2023/01/26 00:15:53;;;;;;;0.70;0.70;;;;;;;-0.69;99.39;97374.13;29373;244;63005;-56
2023/01/26 00:16:26;;;;;;;0.62;0.62;;;;;;;-0.70;99.30;97373.34;29373;199;63009;-56
2023/01/26 00:16:57;;;;;;;0.70;0.70;;;;;;;-0.73;99.52;97376.41;29373;269;63005;-55
2023/01/26 00:17:28;;;;;;;0.70;0.70;;;;;;;-0.74;99.65;97372.09;29373;236;63009;-56
2023/01/26 00:18:00;;;;;;;0.62;0.62;;;;;;;-0.74;99.51;97369.44;29371;300;64009;-55
2023/01/26 00:18:31;;;;;;;0.60;0.60;;;;;;;-0.75;99.58;97367.81;29373;339;63009;-56
2023/01/26 00:19:03;;;;;;;0.60;0.60;;;;;;;-0.75;99.98;97365.13;29373;285;63004;-55
2023/01/26 00:19:34;;;;;;;0.70;0.70;;;;;;;-0.74;99.85;97365.97;29373;314;63009;-55
2023/01/26 00:20:07;;;;;;;0.60;0.60;;;;;;;-0.68;100.00;97371.25;29373;221;63004;-56
2023/01/26 00:20:39;;;;;;;0.60;0.60;;;;;;;-0.60;99.95;97372.03;29372;197;64009;-63
2023/01/26 00:21:17;;;;;;;0.60;0.60;;;;;;;-0.59;99.92;97368.34;29373;211;63004;-56
2023/01/26 00:21:48;;;;;;;0.60;0.60;;;;;;;-0.62;99.34;97358.13;29373;206;63008;-55
2023/01/26 00:22:20;;;;;;;0.70;0.70;;;;;;;-0.67;99.60;97359.56;29373;252;63005;-56
2023/01/26 00:22:51;;;;;;;0.60;0.60;;;;;;;-0.69;99.26;97358.94;29373;269;63009;-56
2023/01/26 00:23:23;;;;;;;0.60;0.60;;;;;;;-0.73;99.47;97357.75;29371;274;64009;-67
2023/01/26 00:24:06;;;;;;;0.60;0.60;;;;;;;-0.77;99.59;97353.88;29373;225;63017;-54
2023/01/26 00:24:38;;;;;;;0.70;0.70;;;;;;;-0.78;99.88;97356.75;29373;308;63008;-56
2023/01/26 00:25:10;;;;;;;0.70;0.70;;;;;;;-0.75;99.82;97349.16;29373;341;63009;-56
2023/01/26 00:25:41;;;;;;;0.70;0.70;;;;;;;-0.71;99.86;97354.88;29371;291;64009;-55
2023/01/26 00:26:19;;;;;;;0.60;0.60;;;;;;;-0.71;99.46;97350.38;29373;202;63013;-56
2023/01/26 00:26:50;;;;;;;0.60;0.60;;;;;;;-0.72;99.30;97354.06;29373;288;63009;-55
2023/01/26 00:27:21;;;;;;;0.60;0.60;;;;;;;-0.72;99.13;97339.94;29373;295;63020;-56
2023/01/26 00:27:52;;;;;;;0.60;0.60;;;;;;;-0.76;99.43;97350.19;29373;295;63004;-56
2023/01/26 00:28:23;;;;;;;0.60;0.60;;;;;;;-0.80;99.33;97351.63;29373;249;63009;-56
2023/01/26 00:28:56;;;;;;;0.60;0.60;;;;;;;-0.82;99.36;97343.03;29373;352;63004;-56
2023/01/26 00:29:27;;;;;;;0.60;0.60;;;;;;;-0.83;99.36;97341.37;29371;196;64027;-56
2023/01/26 00:29:58;;;;;;;0.60;0.60;;;;;;;-0.86;99.75;97341.81;29373;289;63005;-56
2023/01/26 00:30:30;;;;;;;0.70;0.70;;;;;;;-0.89;99.81;97342.22;29373;217;63009;-56
2023/01/26 00:31:06;;;;;;;0.62;0.62;;;;;;;-0.92;100.00;97345.28;29373;209;63005;-56
2023/01/26 00:31:37;;;;;;;0.70;0.70;;;;;;;-0.92;100.00;97347.13;29373;224;63009;-56
2023/01/26 00:32:08;;;;;;;0.65;0.65;;;;;;;-0.94;100.00;97342.03;29373;310;63000;-56
2023/01/26 00:32:39;;;;;;;0.60;0.60;;;;;;;-0.95;100.00;97337.72;29373;314;63009;-56
2023/01/26 00:33:11;;;;;;;0.70;0.70;;;;;;;-0.95;100.00;97347.56;29371;279;64009;-55
2023/01/26 00:33:42;;;;;;;0.60;0.60;;;;;;;-0.95;100.00;97345.72;29373;261;63009;-56
2023/01/26 00:34:13;;;;;;;0.60;0.60;;;;;;;-0.98;100.00;97338.12;29373;260;63004;-57
2023/01/26 00:34:44;;;;;;;0.60;0.60;;;;;;;-0.98;100.00;97343.47;29373;216;63009;-56
2023/01/26 00:35:16;;;;;;;0.60;0.60;;;;;;;-0.97;100.00;97338.97;29373;307;63004;-55
2023/01/26 00:35:57;;;;;;;0.60;0.60;;;;;;;-0.98;100.00;97340.81;29373;355;63009;-56
2023/01/26 00:36:28;;;;;;;0.60;0.60;;;;;;;-1.00;100.00;97340.19;29395;215;63000;-55
2023/01/26 00:36:59;;;;;;;0.65;0.65;;;;;;;-1.01;100.00;97341.22;29395;251;63020;-56
2023/01/26 00:37:31;;;;;;;0.70;0.70;;;;;;;-1.01;100.00;97343.88;29373;199;63011;-56
2023/01/26 00:38:03;;;;;;;0.70;0.70;;;;;;;-1.00;100.00;97340.19;29371;216;64014;-56
2023/01/26 00:38:35;;;;;;;0.70;0.70;;;;;;;-0.99;100.00;97336.50;29373;283;63005;-56
2023/01/26 00:39:06;;;;;;;0.60;0.60;;;;;;;-0.98;100.00;97332.81;29373;214;63009;-55
2023/01/26 00:39:37;;;;;;;0.60;0.60;;;;;;;-0.97;100.00;97334.44;29373;220;63005;-55
2023/01/26 00:40:10;;;;;;;0.70;0.70;;;;;;;-0.95;100.00;97334.25;29373;364;63009;-56
2023/01/26 00:40:41;;;;;;;0.60;0.60;;;;;;;-0.94;100.00;97338.53;29373;303;63006;-55
2023/01/26 00:42:05;;;;;;;0.60;0.60;;;;;;;-0.95;100.00;97343.06;29373;364;63009;-55
2023/01/26 00:42:08;;;;;;;;;;;;;;;-0.94;100.00;97339.34;29974;982;28000;-56
2023/01/26 00:42:39;;;;;;;0.70;0.70;;;;;;;-0.98;100.00;97332.81;29400;223;63016;-56
2023/01/26 00:43:11;;;;;;;0.68;0.68;;;;;;;-0.99;100.00;97336.50;29371;202;64013;-56
2023/01/26 00:43:42;;;;;;;0.70;0.70;;;;;;;-1.02;100.00;97331.59;29373;248;63004;-56
2023/01/26 00:44:13;;;;;;;0.70;0.70;;;;;;;-1.02;100.00;97332.41;29373;248;63008;-56
2023/01/26 00:44:44;;;;;;;0.70;0.70;;;;;;;-1.03;100.00;97333.44;29373;261;63005;-56
2023/01/26 00:45:16;;;;;;;0.60;0.60;;;;;;;-1.02;100.00;97329.75;29373;209;63009;-56
2023/01/26 00:45:48;;;;;;;0.70;0.70;;;;;;;-1.00;100.00;97329.53;29373;323;63005;-56
2023/01/26 00:46:19;;;;;;;0.62;0.62;;;;;;;-1.02;100.00;97331.59;29373;199;63009;-55
2023/01/26 00:46:50;;;;;;;0.60;0.60;;;;;;;-0.99;100.00;97338.34;29373;331;63005;-56
2023/01/26 00:47:21;;;;;;;0.70;0.70;;;;;;;-0.99;100.00;97331.16;29373;290;63018;-56
2023/01/26 00:47:52;;;;;;;0.60;0.60;;;;;;;-0.98;100.00;97327.47;29371;198;64009;-56
2023/01/26 00:48:24;;;;;;;0.70;0.70;;;;;;;-0.97;100.00;97325.63;29373;335;63009;-56
2023/01/26 00:48:55;;;;;;;0.60;0.60;;;;;;;-0.97;100.00;97329.12;29371;292;64009;-56
2023/01/26 00:49:26;;;;;;;0.60;0.60;;;;;;;-0.96;100.00;97330.75;29373;227;63009;-55
2023/01/26 00:49:58;;;;;;;0.60;0.60;;;;;;;-0.96;100.00;97330.75;29373;331;63009;-55
2023/01/26 00:50:29;;;;;;;0.65;0.65;;;;;;;-0.94;100.00;97323.38;29373;204;63009;-65
2023/01/26 00:51:00;;;;;;;0.70;0.70;;;;;;;-0.93;100.00;97330.34;29373;243;63004;-56
2023/01/26 00:51:32;;;;;;;0.70;0.70;;;;;;;-0.91;100.00;97327.47;29373;316;63008;-55
2023/01/26 00:52:04;;;;;;;0.60;0.60;;;;;;;-0.92;100.00;97323.16;29373;199;63005;-57
2023/01/26 00:52:35;;;;;;;0.60;0.60;;;;;;;-0.92;100.00;97320.50;29373;310;63009;-56
2023/01/26 00:53:08;;;;;;;0.60;0.60;;;;;;;-0.92;100.00;97321.31;29371;203;64009;-65
2023/01/26 00:53:39;;;;;;;0.60;0.60;;;;;;;-0.91;100.00;97325.63;29373;280;63009;-55
2023/01/26 00:54:11;;;;;;;0.60;0.60;;;;;;;-0.92;100.00;97329.31;29373;246;63005;-56
2023/01/26 00:54:44;;;;;;;0.70;0.70;;;;;;;-0.92;100.00;97318.66;29373;212;63009;-56
2023/01/26 00:55:15;;;;;;;0.60;0.60;;;;;;;-0.94;100.00;97325.22;29373;303;63005;-56
2023/01/26 00:55:46;;;;;;;0.60;0.60;;;;;;;-0.96;100.00;97325.44;29373;198;63009;-56
2023/01/26 00:56:18;;;;;;;0.60;0.60;;;;;;;-0.96;100.00;97325.44;29373;223;63004;-55
2023/01/26 00:56:49;;;;;;;0.60;0.60;;;;;;;-0.96;100.00;97320.09;29373;365;63009;-55
2023/01/26 00:57:20;;;;;;;0.73;0.73;;;;;;;-0.95;100.00;97321.75;29373;213;63004;-56
2023/01/26 00:57:51;;;;;;;1.12;1.12;;;;;;;-0.94;100.00;97319.91;29373;290;63009;-56
2023/01/26 00:58:22;;;;;;;0.60;0.60;;;;;;;-0.94;100.00;97312.72;29371;298;64009;-55
2023/01/26 00:58:54;;;;;;;0.60;0.60;;;;;;;-0.93;100.00;97317.03;29373;220;63008;-55
2023/01/26 00:59:26;;;;;;;0.60;0.60;;;;;;;-0.93;100.00;97314.34;29373;219;63004;-56
2023/01/26 00:59:57;;;;;;;0.70;0.70;;;;;;;-0.92;100.00;97309.84;29373;202;63009;-56
2023/01/26 01:00:30;;;;;;;0.60;0.60;;;;;;;-0.93;100.00;97317.03;29371;243;64009;-56
2023/01/26 01:01:01;;;;;;;0.60;0.60;;;;;;;-0.96;100.00;97314.78;29373;323;63018;-56
2023/01/26 01:01:33;;;;;;;0.75;0.75;;;;;;;-0.96;100.00;97316.63;29371;220;64009;-55
2023/01/26 01:02:04;;;;;;;0.60;0.60;;;;;;;-0.98;100.00;97319.50;29373;253;63009;-65
2023/01/26 01:02:35;;;;;;;0.73;0.73;;;;;;;-0.97;100.00;97317.66;29373;232;63005;-55
2023/01/26 01:03:07;;;;;;;0.70;0.70;;;;;;;-0.97;100.00;97318.47;29373;263;63009;-56
2023/01/26 01:03:38;;;;;;;0.70;0.70;;;;;;;-0.98;100.00;97316.81;29373;307;63004;-55
2023/01/26 01:04:10;;;;;;;0.60;0.60;;;;;;;-1.00;100.00;97313.56;29373;268;63009;-56
2023/01/26 01:04:41;;;;;;;0.60;0.60;;;;;;;-1.00;100.00;97318.87;29373;221;63004;-56
2023/01/26 01:05:13;;;;;;;0.65;0.65;;;;;;;-1.01;100.00;97318.06;29373;267;63009;-56
2023/01/26 01:05:44;;;;;;;0.60;0.60;;;;;;;-1.01;100.00;97317.25;29373;228;63004;-56
2023/01/26 01:06:15;;;;;;;0.60;0.60;;;;;;;-1.01;100.00;97314.59;29371;212;64013;-55
2023/01/26 01:06:46;;;;;;;0.60;0.60;;;;;;;-1.01;100.00;97315.41;29373;218;63006;-65
2023/01/26 01:07:18;;;;;;;0.70;0.70;;;;;;;-1.00;100.00;97313.56;29373;349;63019;-56
2023/01/26 01:07:49;;;;;;;0.60;0.60;;;;;;;-1.00;100.00;97308.22;29373;213;63005;-58
2023/01/26 01:08:20;;;;;;;0.60;0.60;;;;;;;-1.00;100.00;97308.22;29373;336;63009;-65
2023/01/26 01:08:52;;;;;;;0.60;0.60;;;;;;;-0.98;100.00;97314.16;29373;211;63005;-66
2023/01/26 01:09:24;;;;;;;0.60;0.60;;;;;;;-0.97;100.00;97313.13;29373;202;63017;-66
2023/01/26 01:09:55;;;;;;;0.60;0.60;;;;;;;-0.97;100.00;97307.81;29373;245;63000;-64
2023/01/26 01:10:27;;;;;;;0.70;0.70;;;;;;;-0.97;100.00;97313.13;29373;252;63009;-65
2023/01/26 01:11:07;;;;;;;0.60;0.60;;;;;;;-0.98;100.00;97308.84;29373;199;63004;-57
2023/01/26 01:11:38;;;;;;;0.60;0.60;;;;;;;-0.98;100.00;97311.50;29371;212;64013;-56
2023/01/26 01:12:09;;;;;;;0.80;0.80;;;;;;;-0.99;100.00;97304.53;29373;364;63000;-55
2023/01/26 01:12:41;;;;;;;0.60;0.60;;;;;;;-0.98;100.00;97310.69;29373;336;63009;-67
2023/01/26 01:13:12;;;;;;;0.70;0.70;;;;;;;-0.99;100.00;97304.53;29373;242;63004;-56
2023/01/26 01:13:44;;;;;;;0.70;0.70;;;;;;;-0.98;100.00;97306.16;29373;202;63008;-64
2023/01/26 01:14:16;;;;;;;0.60;0.60;;;;;;;-0.98;100.00;97314.16;29373;293;63005;-55
2023/01/26 01:14:47;;;;;;;0.60;0.60;;;;;;;-1.00;100.00;97308.22;29373;311;63009;-56
2023/01/26 01:15:18;;;;;;;0.70;0.70;;;;;;;-1.00;100.00;97313.56;29373;319;63005;-55
2023/01/26 01:15:49;;;;;;;0.60;0.60;;;;;;;-0.99;100.00;97315.19;29373;365;63009;-55
2023/01/26 01:16:21;;;;;;;0.60;0.60;;;;;;;-0.98;100.00;97316.81;29373;359;63005;-56
2023/01/26 01:16:52;;;;;;;0.70;0.70;;;;;;;-0.96;100.00;97317.44;29371;330;64013;-56
2023/01/26 01:17:24;;;;;;;0.60;0.60;;;;;;;-0.96;100.00;97319.28;29373;264;63012;-55
2023/01/26 01:17:55;;;;;;;0.60;0.60;;;;;;;-0.98;100.00;97314.16;29373;240;63009;-55
2023/01/26 01:18:26;;;;;;;0.60;0.60;;;;;;;-0.99;100.00;97315.19;29373;218;63004;-55
2023/01/26 01:18:57;;;;;;;0.60;0.60;;;;;;;-0.98;100.00;97311.50;29373;269;63009;-56
2023/01/26 01:19:29;;;;;;;0.60;0.60;;;;;;;-0.97;100.00;97313.13;29373;292;63004;-55
2023/01/26 01:20:01;;;;;;;0.60;0.60;;;;;;;-0.95;100.00;97315.59;29373;292;63009;-56
2023/01/26 01:20:33;;;;;;;0.60;0.60;;;;;;;-0.92;100.00;97310.66;29373;330;63004;-56
2023/01/26 01:21:09;;;;;;;0.60;0.60;;;;;;;-0.89;100.00;97312.91;29371;223;64013;-55
2023/01/26 01:21:41;;;;;;;0.95;0.95;;;;;;;-0.80;100.00;97314.31;29373;205;63005;-56
2023/01/26 01:22:13;;;;;;;0.70;0.70;;;;;;;-0.74;100.00;97313.50;29371;363;64014;-57
2023/01/26 01:22:44;;;;;;;0.70;0.70;;;;;;;-0.73;100.00;97315.12;29373;363;63005;-57
2023/01/26 01:23:15;;;;;;;0.60;0.60;;;;;;;-0.74;100.00;97310.81;29373;204;63009;-56
2023/01/26 01:23:46;;;;;;;0.60;0.60;;;;;;;-0.77;100.00;97313.09;29371;246;64009;-55
2023/01/26 01:24:17;;;;;;;0.60;0.60;;;;;;;-0.78;100.00;97312.28;29373;206;63009;-56
2023/01/26 01:24:48;;;;;;;0.60;0.60;;;;;;;-0.80;100.00;97314.31;29372;370;63005;-55
2023/01/26 01:25:20;;;;;;;0.60;0.60;;;;;;;-0.82;100.00;97316.38;29371;336;64002;-55
2023/01/26 01:25:59;;;;;;;0.60;0.60;;;;;;;-0.82;100.00;97321.72;29373;222;63004;-56
2023/01/26 01:26:30;;;;;;;0.60;0.60;;;;;;;-0.81;100.00;97311.88;29373;279;63009;-55
2023/01/26 01:27:03;;;;;;;0.60;0.60;;;;;;;-0.82;100.00;97321.72;29373;270;63004;-55
2023/01/26 01:27:34;;;;;;;0.60;0.60;;;;;;;-0.84;100.00;97307.78;29371;212;64013;-56
2023/01/26 01:28:07;;;;;;;0.60;0.60;;;;;;;-0.82;100.00;97315.56;29373;332;63004;-56
2023/01/26 01:28:41;;;;;;;0.70;0.70;;;;;;;-0.76;100.00;97314.72;29371;221;64008;-55
2023/01/26 01:29:13;;;;;;;0.70;0.70;;;;;;;-0.74;100.00;97312.66;29373;234;63001;-56
2023/01/26 01:29:44;;;;;;;0.70;0.70;;;;;;;-0.75;100.00;97319.84;29373;270;63009;-55
2023/01/26 01:30:18;;;;;;;0.70;0.70;;;;;;;-0.77;100.00;97307.75;29372;262;64005;-56
2023/01/26 01:30:49;;;;;;;0.70;0.70;;;;;;;-0.80;100.00;97309.00;29373;248;63009;-55
2023/01/26 01:31:21;;;;;;;0.60;0.60;;;;;;;-0.79;100.00;97315.97;29373;248;63005;-56
2023/01/26 01:31:53;;;;;;;0.60;0.60;;;;;;;-0.81;100.00;97318.00;29373;335;63009;-55
2023/01/26 01:32:24;;;;;;;0.60;0.60;;;;;;;-0.84;100.00;97307.78;29371;252;64009;-55
2023/01/26 01:32:55;;;;;;;0.70;0.70;;;;;;;-0.83;100.00;97313.94;29373;232;63009;-55
2023/01/26 01:33:26;;;;;;;0.60;0.60;;;;;;;-0.82;100.00;97305.72;29373;275;63004;-55
2023/01/26 01:33:58;;;;;;;0.60;0.60;;;;;;;-0.80;100.00;97309.00;29373;197;63019;-55
2023/01/26 01:34:29;;;;;;;0.60;0.60;;;;;;;-0.80;100.00;97309.00;29373;250;63004;-56
2023/01/26 01:35:01;;;;;;;0.70;0.70;;;;;;;-0.81;100.00;97304.69;29373;203;63015;-55
2023/01/26 01:35:34;;;;;;;0.70;0.70;;;;;;;-0.83;100.00;97313.94;29373;316;63007;-56
2023/01/26 01:36:09;;;;;;;0.65;0.65;;;;;;;-0.84;100.00;97301.63;29373;231;63025;-55
2023/01/26 01:36:41;;;;;;;0.70;0.70;;;;;;;-0.86;100.00;97304.50;29373;242;63005;-55
2023/01/26 01:37:13;;;;;;;0.70;0.70;;;;;;;-0.87;100.00;97302.87;29373;261;63009;-56
2023/01/26 01:37:44;;;;;;;0.60;0.60;;;;;;;-0.89;100.00;97310.25;29371;313;64009;-56
2023/01/26 01:38:16;;;;;;;0.70;0.70;;;;;;;-0.89;100.00;97299.59;29373;239;63009;-55
2023/01/26 01:38:48;;;;;;;0.60;0.60;;;;;;;-0.91;100.00;97306.97;29373;202;63010;-56
2023/01/26 01:39:19;;;;;;;0.60;0.60;;;;;;;-0.95;100.00;97308.41;29373;244;63009;-55
2023/01/26 01:39:50;;;;;;;0.60;0.60;;;;;;;-0.96;100.00;97298.78;29373;230;63005;-56
2023/01/26 01:40:21;;;;;;;0.60;0.60;;;;;;;-0.99;100.00;97299.22;29371;243;64013;-56
2023/01/26 01:40:54;;;;;;;1.02;1.02;;;;;;;-1.01;100.00;97302.09;29373;296;63004;-56
2023/01/26 01:41:27;;;;;;;0.60;0.60;;;;;;;-1.02;100.00;97307.62;29373;293;63009;-56
2023/01/26 01:42:00;;;;;;;0.60;0.60;;;;;;;-1.02;100.00;97304.94;29373;236;63012;-66
2023/01/26 01:42:33;;;;;;;0.60;0.60;;;;;;;-1.02;100.00;97299.62;29373;334;63009;-56
2023/01/26 01:43:11;;;;;;;0.60;0.60;;;;;;;-1.03;100.00;97303.31;29373;222;63004;-56
2023/01/26 01:43:43;;;;;;;0.60;0.60;;;;;;;-1.06;100.00;97301.91;29373;355;63008;-56
2023/01/26 01:44:20;;;;;;;0.70;0.70;;;;;;;-1.08;100.00;97298.66;29373;197;63005;-67
2023/01/26 01:45:33;;;;;;;0.60;0.60;;;;;;;-1.13;100.00;97295.78;29373;266;63009;-56
2023/01/26 01:46:33;;;;;;;4.68;4.35;;;;;;;-1.11;100.00;97301.72;29372;213;64013;-66
2023/01/26 01:47:22;;;;;;;0.70;0.70;;;;;;;-1.08;100.00;97298.66;29373;218;63005;-56
2023/01/26 01:47:56;;;;;;;0.70;0.70;;;;;;;-1.06;100.00;97303.75;29371;199;64013;-56
2023/01/26 01:48:45;;;;;;;0.70;0.70;;;;;;;-1.06;100.00;97303.75;29373;199;63004;-55
2023/01/26 01:49:49;;;;;;;0.70;0.70;;;;;;;-1.04;100.00;97291.06;29373;251;63009;-56
2023/01/26 01:50:21;;;;;;;0.70;0.70;;;;;;;-1.04;100.00;97293.72;29373;249;63016;-55
2023/01/26 01:50:56;;;;;;;0.70;0.70;;;;;;;-1.04;100.00;97296.38;29373;257;63008;-56
2023/01/26 01:51:37;;;;;;;0.60;0.60;;;;;;;-1.05;100.00;97289.41;29373;279;63004;-56
2023/01/26 01:52:25;;;;;;;0.70;0.70;;;;;;;-1.06;100.00;97293.09;29395;231;63009;-55
2023/01/26 01:52:57;;;;;;;0.60;0.60;;;;;;;-1.06;100.00;97285.13;29394;257;64009;-55
2023/01/26 01:53:40;;;;;;;0.70;0.70;;;;;;;-1.05;100.00;97294.75;29373;208;63009;-55
2023/01/26 01:54:17;;;;;;;0.60;0.60;;;;;;;-1.06;100.00;97295.78;29373;227;63005;-55
2023/01/26 01:55:06;;;;;;;0.60;0.60;;;;;;;-1.07;100.00;97291.47;29373;263;63014;-57
2023/01/26 01:55:38;;;;;;;0.60;0.60;;;;;;;-1.06;100.00;97293.09;29373;196;63005;-56
2023/01/26 01:56:20;;;;;;;0.70;0.70;;;;;;;-1.09;100.00;97285.53;29373;212;63009;-55
2023/01/26 01:56:56;;;;;;;0.70;0.70;;;;;;;-1.01;100.00;97302.09;29373;204;63004;-55
2023/01/26 01:57:43;;;;;;;0.70;0.70;;;;;;;-0.98;100.00;97290.19;29371;214;64013;-55
2023/01/26 01:58:15;;;;;;;0.70;0.70;;;;;;;-0.97;100.00;97291.00;29373;223;63004;-56
2023/01/26 01:58:50;;;;;;;0.70;0.70;;;;;;;-0.99;100.00;97293.88;29373;210;63008;-56
2023/01/26 01:59:22;;;;;;;0.70;0.70;;;;;;;-0.99;100.00;97293.06;29373;227;63005;-55
2023/01/26 02:00:07;;;;;;;0.65;0.65;;;;;;;-1.00;100.00;97292.25;29373;275;63009;-64
2023/01/26 02:00:38;;;;;;;0.65;0.65;;;;;;;-1.02;100.00;97289.78;29373;198;63016;-55
2023/01/26 02:01:10;;;;;;;0.70;0.70;;;;;;;-1.02;100.00;97289.78;29373;288;63009;-55
2023/01/26 02:01:41;;;;;;;0.60;0.60;;;;;;;-1.02;100.00;97288.97;29373;213;63005;-56
2023/01/26 02:02:13;;;;;;;0.70;0.70;;;;;;;-1.02;100.00;97280.97;29373;331;63009;-55
2023/01/26 02:03:09;;;;;;;0.60;0.60;;;;;;;-1.01;100.00;97295.94;29371;205;64009;-56
2023/01/26 02:03:42;;;;;;;0.60;0.60;;;;;;;-1.02;100.00;97289.78;29371;256;64013;-55
2023/01/26 02:04:14;;;;;;;0.60;0.60;;;;;;;-1.01;100.00;97285.28;29373;251;63004;-56
2023/01/26 02:04:45;;;;;;;0.60;0.60;;;;;;;-1.01;100.00;97285.28;29373;305;63009;-56
2023/01/26 02:05:25;;;;;;;0.70;0.70;;;;;;;-0.95;100.00;97289.78;29373;208;63004;-57
2023/01/26 02:06:10;;;;;;;0.70;0.70;;;;;;;-0.95;100.00;97289.78;29373;227;63022;-55
2023/01/26 02:07:08;;;;;;;0.60;0.60;;;;;;;-0.95;100.00;97289.78;29373;263;63005;-54
2023/01/26 02:07:39;;;;;;;0.60;0.60;;;;;;;-0.97;100.00;97297.16;29373;310;63009;-56
2023/01/26 02:08:13;;;;;;;0.70;0.70;;;;;;;-1.00;100.00;97294.91;29373;205;63005;-56
2023/01/26 02:08:50;;;;;;;0.60;0.60;;;;;;;-1.01;100.00;97285.28;29371;234;64013;-55
2023/01/26 02:10:19;;;;;;;0.70;0.70;;;;;;;-0.98;100.00;97284.88;29373;322;63009;-56
2023/01/26 02:10:54;;;;;;;0.65;0.65;;;;;;;-0.99;100.00;97285.88;29371;303;64009;-55
2023/01/26 02:11:43;;;;;;;0.60;0.60;;;;;;;-1.02;100.00;97284.47;29373;236;63009;-64
2023/01/26 02:12:18;;;;;;;0.68;0.68;;;;;;;-1.04;100.00;97281.19;29373;243;63004;-56
2023/01/26 02:12:59;;;;;;;0.70;0.70;;;;;;;-1.04;100.00;97280.41;29373;213;63008;-55
2023/01/26 02:13:32;;;;;;;0.70;0.70;;;;;;;-1.05;100.00;97278.78;29395;308;63013;-56
2023/01/26 02:14:07;;;;;;;0.60;0.60;;;;;;;-1.03;100.00;97282.00;29395;222;63025;-67
2023/01/26 02:14:39;;;;;;;0.65;0.65;;;;;;;-1.02;100.00;97280.97;29373;313;63005;-55
2023/01/26 02:15:14;;;;;;;0.70;0.70;;;;;;;-1.01;100.00;97277.28;29373;233;63009;-56
2023/01/26 02:15:47;;;;;;;0.70;0.70;;;;;;;-1.02;100.00;97276.47;29371;223;64009;-56
2023/01/26 02:16:19;;;;;;;0.60;0.60;;;;;;;-1.01;100.00;97271.97;29373;330;63015;-55
2023/01/26 02:16:50;;;;;;;0.62;0.62;;;;;;;-1.01;100.00;97274.63;29373;239;63005;-56
2023/01/26 02:17:21;;;;;;;0.70;0.70;;;;;;;-0.99;100.00;97279.75;29373;233;63009;-57
2023/01/26 02:17:54;;;;;;;0.70;0.70;;;;;;;-1.00;100.00;97276.25;29373;295;63004;-54
2023/01/26 02:18:28;;;;;;;0.60;0.60;;;;;;;-0.99;100.00;97280.56;29373;218;63009;-56
2023/01/26 02:19:00;;;;;;;0.60;0.60;;;;;;;-0.99;100.00;97275.25;29373;202;63008;-55
2023/01/26 02:20:01;;;;;;;0.70;0.70;;;;;;;-0.99;100.00;97272.56;29373;222;63019;-55
2023/01/26 02:20:56;;;;;;;0.60;0.60;;;;;;;-1.02;100.00;97283.66;29393;234;64008;-66
2023/01/26 02:21:27;;;;;;;0.60;0.60;;;;;;;-1.03;100.00;97276.69;29395;242;63009;-56
2023/01/26 02:22:06;;;;;;;0.70;0.70;;;;;;;-1.02;100.00;97275.66;29373;221;63005;-65
2023/01/26 02:23:26;;;;;;;0.70;0.70;;;;;;;-1.03;100.00;97266.84;29373;199;63009;-56
2023/01/26 02:24:28;;;;;;;0.60;0.60;;;;;;;-1.06;100.00;97269.97;29373;251;63005;-55
2023/01/26 02:25:06;;;;;;;0.70;0.70;;;;;;;-1.08;100.00;97268.53;29395;207;63009;-66
2023/01/26 02:26:02;;;;;;;0.70;0.70;;;;;;;-1.08;100.00;97263.22;29394;222;64009;-56
2023/01/26 02:26:35;;;;;;;0.70;0.70;;;;;;;-1.09;100.00;97272.22;29373;250;63009;-55
2023/01/26 02:27:07;;;;;;;0.70;0.70;;;;;;;-1.09;100.00;97273.03;29373;202;63009;-55
2023/01/26 02:27:39;;;;;;;0.70;0.70;;;;;;;-1.11;100.00;97275.09;29373;278;63009;-55
2023/01/26 02:28:11;;;;;;;0.70;0.70;;;;;;;-1.08;100.00;97274.69;29373;219;63004;-55
2023/01/26 02:28:44;;;;;;;0.70;0.70;;;;;;;-1.05;100.00;97268.12;29371;224;64014;-55
2023/01/26 02:29:15;;;;;;;0.93;0.93;;;;;;;-1.04;100.00;97270.53;29373;218;63005;-55
2023/01/26 02:29:48;;;;;;;0.68;0.68;;;;;;;-1.06;100.00;97269.12;29373;203;63015;-55
2023/01/26 02:30:22;;;;;;;0.60;0.60;;;;;;;-1.07;100.00;97268.31;29373;212;63000;-56
2023/01/26 02:30:55;;;;;;;0.60;0.60;;;;;;;-1.07;100.00;97259.50;29373;247;63005;-55
2023/01/26 02:31:27;;;;;;;0.70;0.70;;;;;;;-1.08;100.00;97265.88;29373;232;63005;-55
2023/01/26 02:31:59;;;;;;;0.70;0.70;;;;;;;-1.07;100.00;97267.50;29373;240;63009;-56
2023/01/26 02:32:31;;;;;;;0.60;0.60;;;;;;;-1.08;100.00;97263.22;29373;292;63005;-56
2023/01/26 02:33:03;;;;;;;0.80;0.80;;;;;;;-1.10;100.00;97263.41;29371;202;64013;-56
2023/01/26 02:33:35;;;;;;;0.70;0.70;;;;;;;-1.14;100.00;97264.03;29373;247;63004;-58
2023/01/26 02:34:06;;;;;;;0.68;0.68;;;;;;;-1.15;100.00;97262.41;29373;242;63009;-55
2023/01/26 02:34:37;;;;;;;0.60;0.60;;;;;;;-1.16;100.00;97261.59;29373;240;63004;-56
2023/01/26 02:35:09;;;;;;;0.70;0.70;;;;;;;-1.16;100.00;97261.59;29373;197;63009;-56
2023/01/26 02:35:40;;;;;;;0.60;0.60;;;;;;;-1.17;100.00;97259.13;29373;202;63004;-55
2023/01/26 02:36:18;;;;;;;0.70;0.70;;;;;;;-1.18;100.00;97258.31;29373;261;63009;-54
2023/01/26 02:37:00;;;;;;;0.70;0.70;;;;;;;-1.19;100.00;97266.50;29373;262;63005;-54
2023/01/26 02:37:31;;;;;;;0.80;0.80;;;;;;;-1.19;100.00;97259.34;29373;218;63009;-54
2023/01/26 02:38:02;;;;;;;0.60;0.60;;;;;;;-1.19;100.00;97262.00;29371;222;64009;-54
2023/01/26 02:38:42;;;;;;;0.60;0.60;;;;;;;-1.18;100.00;97265.47;29373;250;63009;-54
2023/01/26 02:39:52;;;;;;;0.62;0.62;;;;;;;-1.23;100.00;97259.97;29355;227;125005;-54
2023/01/26 02:40:53;;;;;;;0.70;0.70;;;;;;;-1.22;100.00;97257.09;29394;207;64013;-55
2023/01/26 02:43:04;;;;;;;0.60;0.60;;;;;;;-1.22;100.00;97261.59;29373;255;63008;-54
2023/01/26 02:43:36;;;;;;;0.60;0.60;;;;;;;-1.23;100.00;97259.97;29373;267;63003;-55
2023/01/26 02:44:11;;;;;;;0.60;0.60;;;;;;;-1.21;100.00;97263.22;29373;204;63009;-56